Time;durP1;ratioP1;P1;durP2;ratioP2;P2;SDS_P1;SDS_P2;PMS_P1;PMS_P2;Temp;Humidity;BMP_temperature;BMP_pressure;BME280_temperature;BME280_humidity;BME280_pressure;Samples;Min_cycle;Max_cycle;Signal;HPM_P1;HPM_P2
2022/06/04 00:01:45;;;;;;;14.85;12.13;;;;;;;30.70;58.29;101230.34;1740602;82;21083;-66
2022/06/04 00:04:14;;;;;;;15.20;12.78;;;;;;;30.72;58.66;101239.77;1739482;80;21516;-66
2022/06/04 00:06:43;;;;;;;15.53;12.23;;;;;;;30.51;58.68;101232.49;1750735;81;21099;-67
2022/06/04 00:09:15;;;;;;;14.65;11.97;;;;;;;30.50;58.62;101232.70;1735384;81;21567;-66
2022/06/04 00:17:18;;;;;;;16.17;12.35;;;;;;;30.81;56.82;101231.19;1717182;80;21047;-67
2022/06/04 00:19:45;;;;;;;15.93;12.37;;;;;;;30.40;58.00;101222.33;1744464;80;21024;-67
2022/06/04 00:22:13;;;;;;;14.28;12.30;;;;;;;30.52;57.72;101223.53;1753876;81;21047;-67
2022/06/04 00:24:43;;;;;;;15.00;12.55;;;;;;;30.78;57.04;101230.24;1752073;81;21031;-67
2022/06/04 00:27:19;;;;;;;14.58;12.28;;;;;;;31.05;56.68;101219.47;1752717;81;21050;-67
2022/06/04 00:29:48;;;;;;;13.72;11.80;;;;;;;30.78;57.15;101230.24;1757482;80;21064;-68
2022/06/04 00:32:18;;;;;;;16.93;12.37;;;;;;;30.40;57.77;101221.50;1741796;80;21102;-68
2022/06/04 00:34:45;;;;;;;12.95;11.48;;;;;;;30.74;57.38;101221.80;1749602;80;21512;-68
2022/06/04 00:37:13;;;;;;;15.45;11.83;;;;;;;30.79;57.03;101225.23;1748324;81;21062;-67
2022/06/04 00:39:40;;;;;;;12.85;11.55;;;;;;;30.26;58.17;101215.12;1748224;81;21067;-67
2022/06/04 00:42:12;;;;;;;15.53;12.18;;;;;;;30.39;57.43;101221.17;1740964;81;21007;-67
2022/06/04 00:45:26;;;;;;;12.20;11.00;;;;;;;30.41;57.81;101213.33;1747968;81;21020;-67
2022/06/04 00:47:53;;;;;;;16.12;11.85;;;;;;;31.38;55.57;101219.55;1741958;81;21067;-68
2022/06/04 00:50:22;;;;;;;12.73;11.40;;;;;;;30.07;57.97;101221.27;1744762;80;21130;-68
2022/06/04 00:52:51;;;;;;;13.98;11.48;;;;;;;29.78;58.40;101213.19;1747677;81;21028;-68
2022/06/04 00:55:20;;;;;;;13.83;11.20;;;;;;;29.95;58.46;101216.87;1739770;81;21491;-67
2022/06/04 00:58:02;;;;;;;14.15;11.63;;;;;;;29.30;59.64;101207.48;1748579;81;21032;-67
2022/06/04 01:00:46;;;;;;;15.88;11.70;;;;;;;29.39;59.53;101202.13;1734943;81;21140;-67
2022/06/04 01:03:28;;;;;;;13.00;11.20;;;;;;;29.57;58.84;101202.69;1736692;81;21526;-68
2022/06/04 01:06:16;;;;;;;13.95;11.33;;;;;;;29.66;58.80;101198.95;1748123;80;21051;-67
2022/06/04 01:09:00;;;;;;;12.60;11.30;;;;;;;29.64;58.71;101202.28;1752151;80;21044;-67
2022/06/04 01:12:09;;;;;;;;;;;;;;;29.75;58.30;101195.28;1749339;81;21634;-67
2022/06/04 01:14:22;;;;;;;17.12;12.35;;;;;;;29.70;58.52;101196.78;1709528;81;20135;-67
2022/06/04 01:17:05;;;;;;;16.70;11.57;;;;;;;30.00;57.64;101205.71;1751777;81;21559;-68
2022/06/04 01:19:54;;;;;;;14.85;11.53;;;;;;;30.06;57.13;101206.32;1751179;80;21015;-69
2022/06/04 01:22:35;;;;;;;15.03;11.30;;;;;;;30.07;57.41;101182.77;1752879;80;21535;-68
2022/06/04 01:25:26;;;;;;;16.93;11.93;;;;;;;30.21;56.97;101185.13;1742634;81;21078;-67
2022/06/04 01:28:16;;;;;;;16.30;12.58;;;;;;;29.52;57.74;101193.93;1715789;81;21084;-67
2022/06/04 01:30:52;;;;;;;18.55;12.50;;;;;;;29.50;58.11;101191.95;1716147;82;21095;-67
2022/06/04 01:33:39;;;;;;;17.20;12.10;;;;;;;29.53;58.32;101190.27;1733588;81;21562;-67
2022/06/04 01:36:18;;;;;;;14.93;12.50;;;;;;;30.32;56.81;101190.02;1721079;82;21551;-67
2022/06/04 01:39:00;;;;;;;18.32;12.78;;;;;;;29.98;57.12;101184.34;1714624;82;21574;-67
2022/06/04 01:41:45;;;;;;;16.25;12.63;;;;;;;29.91;57.43;101185.05;1724856;82;21165;-66
2022/06/04 01:44:19;;;;;;;20.15;13.28;;;;;;;30.38;56.63;101179.69;1717134;82;21082;-67
2022/06/04 01:46:52;;;;;;;19.27;13.62;;;;;;;30.76;55.77;101181.76;1704152;83;21061;-68
2022/06/04 01:49:43;;;;;;;21.70;14.23;;;;;;;30.27;56.65;101181.75;1709637;82;21535;-67
2022/06/04 01:52:26;;;;;;;20.75;14.35;;;;;;;30.57;56.14;101182.30;1709190;82;21091;-66
2022/06/04 01:55:11;;;;;;;18.62;14.00;;;;;;;30.26;56.65;101179.27;1718712;81;21583;-67
2022/06/04 01:57:53;;;;;;;19.30;14.23;;;;;;;30.40;56.14;101179.00;1723625;81;21550;-67
2022/06/04 02:00:24;;;;;;;16.07;13.40;;;;;;;30.30;56.73;101180.59;1723177;82;21149;-67
2022/06/04 02:03:00;;;;;;;17.48;13.35;;;;;;;30.34;56.15;101188.01;1716340;82;21070;-67
2022/06/04 02:05:38;;;;;;;17.85;12.55;;;;;;;29.45;58.24;101189.50;1717523;82;21059;-67
2022/06/04 02:08:08;;;;;;;17.60;12.47;;;;;;;30.12;56.97;101184.88;1719289;82;21167;-67
2022/06/04 02:10:44;;;;;;;16.97;12.50;;;;;;;30.04;57.04;101181.78;1712147;83;21059;-69
2022/06/04 02:13:14;;;;;;;14.93;12.07;;;;;;;30.27;56.68;101183.08;1709800;82;21043;-67
2022/06/04 02:15:49;;;;;;;17.42;12.30;;;;;;;30.32;56.24;101186.55;1721128;82;21010;-67
2022/06/04 02:18:16;;;;;;;16.52;12.30;;;;;;;30.66;55.72;101186.53;1718446;81;21072;-67
2022/06/04 02:20:44;;;;;;;14.20;11.95;;;;;;;30.52;55.56;101189.50;1710208;82;21019;-67
2022/06/04 02:23:13;;;;;;;14.87;11.97;;;;;;;30.37;55.57;101193.45;1687223;83;21083;-66
2022/06/04 02:25:39;;;;;;;17.12;12.03;;;;;;;30.10;56.40;101193.02;1717383;83;21066;-67
2022/06/04 02:28:10;;;;;;;15.45;12.25;;;;;;;30.54;55.81;101186.97;1712803;83;21137;-66
2022/06/04 02:30:59;;;;;;;16.55;12.73;;;;;;;30.36;55.86;101186.50;1719783;82;21066;-67
2022/06/04 02:33:47;;;;;;;18.90;12.82;;;;;;;30.16;56.44;101182.18;1731885;81;21051;-66
2022/06/04 02:36:48;;;;;;;18.77;12.53;;;;;;;30.51;55.81;101187.84;1730508;80;21035;-66
2022/06/04 02:39:38;;;;;;;17.00;13.10;;;;;;;30.25;55.94;101185.58;1733945;82;21059;-66
2022/06/04 02:42:14;;;;;;;16.90;13.13;;;;;;;29.63;57.16;101180.75;1718861;82;21034;-67
2022/06/04 02:44:49;;;;;;;17.37;12.88;;;;;;;29.71;57.44;101182.05;1754421;80;21048;-67
2022/06/04 02:47:28;;;;;;;16.90;12.40;;;;;;;30.26;55.98;101176.10;1740804;81;21480;-67
2022/06/04 02:50:09;;;;;;;15.53;12.07;;;;;;;29.90;56.67;101175.42;1746894;81;21169;-68
2022/06/04 02:52:38;;;;;;;14.28;11.83;;;;;;;30.07;56.21;101173.95;1679264;82;21132;-67
2022/06/04 02:55:17;;;;;;;17.55;12.10;;;;;;;30.52;55.25;101183.67;1715126;82;21060;-68
2022/06/04 02:57:50;;;;;;;14.50;11.38;;;;;;;30.31;55.39;101178.23;1718679;82;21083;-67
2022/06/04 03:00:21;;;;;;;12.50;10.78;;;;;;;30.10;55.82;101182.39;1719567;82;21008;-66
2022/06/04 03:02:51;;;;;;;17.37;11.88;;;;;;;29.73;56.07;101174.73;1749191;81;21063;-67
2022/06/04 03:05:23;;;;;;;12.93;10.58;;;;;;;30.50;55.21;101175.06;1747503;81;21040;-67
2022/06/04 03:07:56;;;;;;;15.88;10.95;;;;;;;30.27;55.37;101166.30;1741589;80;21067;-67
2022/06/04 03:10:30;;;;;;;;;;;;;;;30.96;54.55;101168.73;1746013;81;21095;-67
2022/06/04 03:12:57;;;;;;;17.80;10.98;;;;;;;30.82;54.13;101170.88;1735490;81;20112;-67
2022/06/04 03:15:24;;;;;;;14.00;10.80;;;;;;;30.21;55.18;101172.33;1740092;81;21043;-68
2022/06/04 03:17:54;;;;;;;14.20;10.70;;;;;;;30.31;55.08;101168.94;1746878;81;21516;-67
2022/06/04 03:20:24;;;;;;;14.68;10.65;;;;;;;30.87;53.91;101164.00;1741226;82;21035;-66
2022/06/04 03:22:53;;;;;;;15.58;11.05;;;;;;;31.19;53.20;101163.80;1750569;81;21036;-67
2022/06/04 03:25:21;;;;;;;14.93;10.40;;;;;;;30.77;53.96;101159.47;1745726;80;21051;-69
2022/06/04 03:27:49;;;;;;;13.95;10.23;;;;;;;30.97;53.36;101163.74;1739906;81;21044;-67
2022/06/04 03:30:17;;;;;;;14.83;10.40;;;;;;;30.88;53.70;101167.02;1735251;81;21075;-67
2022/06/04 03:32:45;;;;;;;13.72;10.08;;;;;;;30.76;53.97;101165.81;1751067;80;21166;-67
2022/06/04 03:35:14;;;;;;;12.68;10.32;;;;;;;30.64;54.19;101162.79;1745897;81;21047;-67
2022/06/04 03:37:41;;;;;;;14.70;10.48;;;;;;;29.98;55.61;101155.95;1749658;81;21003;-67
2022/06/04 03:40:10;;;;;;;13.00;9.93;;;;;;;30.83;53.71;101160.58;1745509;81;21043;-67
2022/06/04 03:42:38;;;;;;;13.62;9.85;;;;;;;30.75;53.82;101156.99;1743804;81;21055;-68
2022/06/04 03:45:08;;;;;;;14.00;10.10;;;;;;;30.40;54.73;101162.55;1749867;81;21551;-67
2022/06/04 03:47:39;;;;;;;13.38;10.35;;;;;;;30.17;54.92;101171.86;1698048;81;21037;-66
2022/06/04 03:50:16;;;;;;;15.63;10.58;;;;;;;30.69;54.34;101163.05;1751711;81;20992;-67
2022/06/04 03:52:46;;;;;;;15.38;10.68;;;;;;;31.21;53.49;101166.58;1750155;80;21055;-67
2022/06/04 03:55:16;;;;;;;15.18;10.58;;;;;;;31.40;53.06;101168.31;1740657;81;21042;-67
2022/06/04 03:57:52;;;;;;;14.53;10.48;;;;;;;31.76;52.39;101167.47;1751970;80;21106;-67
2022/06/04 04:00:28;;;;;;;;;;;;;;;31.10;53.51;101165.73;1734767;81;21519;-67
2022/06/04 04:03:07;;;;;;;15.55;10.88;;;;;;;31.47;53.16;101169.21;1754747;81;20398;-66
2022/06/04 04:05:43;;;;;;;15.58;10.58;;;;;;;31.41;53.66;101169.94;1740934;81;21008;-67
2022/06/04 04:08:10;;;;;;;18.65;10.30;;;;;;;30.85;53.89;101168.67;1748801;81;21068;-67
2022/06/04 04:10:42;;;;;;;13.38;10.35;;;;;;;31.48;53.10;101161.56;1722525;81;21051;-67
2022/06/04 04:13:13;;;;;;;15.68;10.32;;;;;;;31.42;53.56;101156.45;1724693;82;21527;-67
2022/06/04 04:15:43;;;;;;;12.10;10.60;;;;;;;31.64;53.23;101163.97;1733766;81;21004;-68
2022/06/04 04:18:10;;;;;;;15.78;10.58;;;;;;;31.98;52.51;101169.59;1717933;82;21595;-67
2022/06/04 04:20:41;;;;;;;14.18;10.10;;;;;;;31.85;52.47;101154.31;1723697;81;21090;-66
2022/06/04 04:23:09;;;;;;;12.07;10.30;;;;;;;31.55;52.86;101155.81;1712763;82;21028;-67
2022/06/04 04:25:37;;;;;;;13.10;10.78;;;;;;;31.26;53.52;101150.05;1708039;82;21062;-66
2022/06/04 04:28:06;;;;;;;13.93;10.58;;;;;;;31.86;52.46;101151.98;1749873;81;21051;-66
2022/06/04 04:30:36;;;;;;;13.70;10.08;;;;;;;31.76;52.72;101153.64;1747111;81;21023;-68
2022/06/04 04:33:06;;;;;;;17.25;10.38;;;;;;;31.93;52.56;101157.65;1750448;81;21060;-66
2022/06/04 04:35:35;;;;;;;11.68;9.93;;;;;;;32.10;52.49;101152.91;1738280;81;21047;-65
2022/06/04 04:38:03;;;;;;;15.55;11.15;;;;;;;31.62;52.67;101158.02;1746572;81;20996;-66
2022/06/04 04:40:32;;;;;;;15.70;11.28;;;;;;;31.84;52.48;101154.02;1740318;81;21040;-65
2022/06/04 04:43:00;;;;;;;13.85;10.65;;;;;;;31.94;52.85;101135.34;1740488;81;21598;-66
2022/06/04 04:45:28;;;;;;;17.50;11.05;;;;;;;32.36;52.22;101144.76;1750129;81;21460;-66
2022/06/04 04:47:56;;;;;;;12.88;9.93;;;;;;;32.09;52.36;101147.25;1746084;81;21048;-66
2022/06/04 04:50:31;;;;;;;14.33;9.98;;;;;;;31.90;53.22;101147.41;1751016;81;21067;-66
2022/06/04 04:53:02;;;;;;;11.00;9.33;;;;;;;32.08;52.77;101142.96;1749848;81;21059;-66
2022/06/04 04:55:32;;;;;;;16.50;10.08;;;;;;;31.71;53.31;101150.71;1750451;80;21539;-66
2022/06/04 04:57:59;;;;;;;11.45;9.28;;;;;;;31.82;52.67;101146.21;1749537;81;21620;-66
2022/06/04 05:00:27;;;;;;;14.38;9.40;;;;;;;31.50;53.50;101148.38;1749212;81;21508;-66
2022/06/04 05:02:57;;;;;;;10.90;9.30;;;;;;;31.88;53.30;101141.97;1745929;81;20988;-68
2022/06/04 05:05:25;;;;;;;14.75;8.85;;;;;;;32.40;52.46;101142.05;1749261;81;21063;-66
2022/06/04 05:07:52;;;;;;;13.70;9.40;;;;;;;32.73;51.65;101144.08;1746463;81;21036;-67
2022/06/04 05:10:19;;;;;;;10.40;9.18;;;;;;;32.35;52.23;101141.80;1748600;80;21047;-65
2022/06/04 05:12:53;;;;;;;13.10;9.30;;;;;;;32.77;51.38;101144.48;1746160;81;21064;-65
2022/06/04 05:15:21;;;;;;;12.07;8.80;;;;;;;31.86;52.64;101150.14;1710730;82;21044;-66
2022/06/04 05:17:50;;;;;;;15.13;8.93;;;;;;;32.11;52.74;101142.55;1738906;81;21587;-66
2022/06/04 05:20:18;;;;;;;11.95;8.08;;;;;;;32.31;52.29;101148.02;1747143;81;21547;-66
2022/06/04 05:22:45;;;;;;;12.70;8.85;;;;;;;32.64;52.20;101145.25;1750687;81;21086;-66
2022/06/04 05:25:13;;;;;;;10.80;8.95;;;;;;;31.76;52.98;101159.48;1739282;81;21044;-66
2022/06/04 05:27:40;;;;;;;9.80;8.60;;;;;;;32.91;52.09;101152.87;1761295;81;21573;-66
2022/06/04 05:30:08;;;;;;;10.93;8.18;;;;;;;32.74;52.06;101144.38;1750310;81;21516;-67
2022/06/04 05:32:35;;;;;;;11.97;9.00;;;;;;;32.21;52.37;101146.73;1750076;81;21044;-66
2022/06/04 05:35:03;;;;;;;11.63;8.45;;;;;;;32.42;52.71;101142.67;1753505;81;21055;-66
2022/06/04 05:37:31;;;;;;;9.93;8.15;;;;;;;32.74;52.21;101131.05;1749900;81;21084;-65
2022/06/04 05:39:58;;;;;;;10.28;8.40;;;;;;;33.16;51.17;101141.69;1724970;81;21038;-65
2022/06/04 05:42:24;;;;;;;14.98;8.78;;;;;;;33.20;51.35;101142.41;1737969;81;21016;-67
2022/06/04 05:44:53;;;;;;;11.12;7.95;;;;;;;32.66;52.02;101138.70;1738080;80;21047;-67
2022/06/04 05:47:20;;;;;;;8.70;7.80;;;;;;;33.28;52.17;101140.88;1740351;81;21044;-66
2022/06/04 05:49:47;;;;;;;8.90;7.80;;;;;;;33.56;51.44;101139.90;1745860;81;21067;-66
2022/06/04 05:52:15;;;;;;;11.75;8.10;;;;;;;33.76;51.36;101145.77;1743429;81;21108;-67
2022/06/04 05:54:42;;;;;;;9.05;7.55;;;;;;;33.29;51.18;101152.37;1746858;81;21067;-66
2022/06/04 05:57:09;;;;;;;8.80;8.00;;;;;;;33.17;51.61;101146.80;1741061;81;21122;-67
2022/06/04 05:59:36;;;;;;;11.97;8.05;;;;;;;33.32;51.32;101142.64;1744349;81;21516;-65
2022/06/04 06:02:04;;;;;;;9.03;8.13;;;;;;;33.17;52.10;101133.45;1739791;81;21102;-66
2022/06/04 06:04:32;;;;;;;12.15;8.90;;;;;;;33.28;52.16;101136.88;1748744;81;21594;-66
2022/06/04 06:07:00;;;;;;;10.85;8.85;;;;;;;34.11;50.97;101127.15;1740270;81;21534;-66
2022/06/04 06:09:28;;;;;;;10.88;8.50;;;;;;;33.22;51.73;101139.02;1746894;81;21618;-67
2022/06/04 06:11:56;;;;;;;10.68;8.10;;;;;;;33.16;52.05;101134.50;1751367;81;21091;-66
2022/06/04 06:14:24;;;;;;;9.78;8.45;;;;;;;33.25;52.51;101129.27;1750166;80;21036;-66
2022/06/04 06:16:52;;;;;;;11.18;8.00;;;;;;;33.52;52.15;101126.66;1747252;81;21079;-67
2022/06/04 06:19:22;;;;;;;8.65;7.62;;;;;;;33.69;51.69;101123.09;1747239;80;21035;-66
2022/06/04 06:21:50;;;;;;;10.00;7.90;;;;;;;33.69;51.62;101131.91;1753289;80;21028;-68
2022/06/04 06:24:21;;;;;;;10.00;7.60;;;;;;;34.01;50.50;101131.28;1751830;80;20976;-67
2022/06/04 06:26:55;;;;;;;9.20;8.23;;;;;;;34.17;50.78;101130.06;1721003;82;21055;-66
2022/06/04 06:29:26;;;;;;;11.88;8.83;;;;;;;34.49;50.59;101129.14;1753061;80;21024;-65
2022/06/04 06:31:55;;;;;;;13.20;7.95;;;;;;;34.38;51.00;101124.95;1750784;81;21520;-67
2022/06/04 06:34:23;;;;;;;12.23;8.18;;;;;;;34.49;50.43;101126.47;1750914;81;21028;-67
2022/06/04 06:36:50;;;;;;;11.55;8.33;;;;;;;34.79;49.79;101126.47;1748844;80;21015;-66
2022/06/04 06:39:18;;;;;;;13.62;8.63;;;;;;;34.61;49.79;101129.31;1736882;81;21590;-66
2022/06/04 06:41:46;;;;;;;17.57;8.95;;;;;;;34.44;49.70;101135.63;1745804;80;21051;-66
2022/06/04 06:44:14;;;;;;;12.13;9.50;;;;;;;34.65;50.61;101119.86;1746693;81;21084;-66
2022/06/04 06:46:46;;;;;;;11.80;8.93;;;;;;;34.58;50.59;101124.89;1744270;81;21518;-65
2022/06/04 06:49:22;;;;;;;9.70;7.47;;;;;;;34.74;50.25;101126.30;1751812;81;21160;-66
2022/06/04 06:51:58;;;;;;;10.20;8.13;;;;;;;34.55;50.07;101134.13;1747249;81;21043;-66
2022/06/04 06:54:26;;;;;;;14.43;9.43;;;;;;;35.21;49.00;101129.03;1747276;81;21558;-66
2022/06/04 06:56:55;;;;;;;13.28;8.83;;;;;;;34.81;49.28;101125.73;1748043;81;21055;-67
2022/06/04 06:59:24;;;;;;;12.68;8.93;;;;;;;35.32;49.69;101122.16;1751694;81;21554;-67
2022/06/04 07:01:54;;;;;;;12.47;8.70;;;;;;;35.06;49.35;101125.30;1741362;81;21107;-67
2022/06/04 07:04:23;;;;;;;16.48;8.38;;;;;;;35.50;49.27;101122.25;1744702;82;21075;-66
2022/06/04 07:06:56;;;;;;;11.65;8.90;;;;;;;36.12;49.28;101118.01;1754024;81;21027;-66
2022/06/04 07:09:28;;;;;;;11.00;9.13;;;;;;;35.88;48.00;101119.16;1747523;81;21064;-67
2022/06/04 07:11:55;;;;;;;13.08;9.88;;;;;;;35.88;48.00;101119.16;1737956;80;21020;-67
2022/06/04 07:14:24;;;;;;;15.80;9.73;;;;;;;35.80;48.43;101106.86;1735549;81;21013;-67
2022/06/04 07:16:53;;;;;;;13.13;9.33;;;;;;;36.10;48.30;101113.67;1738363;80;21491;-67
2022/06/04 07:19:23;;;;;;;17.98;9.95;;;;;;;36.08;48.01;101115.76;1716058;82;21526;-68
2022/06/04 07:21:54;;;;;;;11.75;9.35;;;;;;;35.82;47.14;101128.08;1711298;81;21598;-68
2022/06/04 07:24:22;;;;;;;13.28;9.68;;;;;;;35.84;47.84;101125.48;1738420;82;21499;-67
2022/06/04 07:26:50;;;;;;;10.82;8.53;;;;;;;35.86;47.99;101118.56;1747763;81;21090;-66
2022/06/04 07:29:18;;;;;;;12.33;9.08;;;;;;;36.32;48.00;101119.97;1746005;81;21033;-67
2022/06/04 07:31:45;;;;;;;13.55;9.55;;;;;;;35.86;47.83;101123.92;1732848;81;20973;-66
2022/06/04 07:34:12;;;;;;;16.60;10.53;;;;;;;35.79;47.94;101116.45;1739254;81;21091;-66
2022/06/04 07:36:45;;;;;;;11.53;10.10;;;;;;;36.16;48.01;101113.34;1742242;81;21004;-66
2022/06/04 07:39:21;;;;;;;13.70;9.58;;;;;;;36.08;47.19;101114.42;1726869;81;20990;-67
2022/06/04 07:41:52;;;;;;;13.68;9.30;;;;;;;35.91;48.08;101125.44;1724078;81;21051;-65
2022/06/04 07:44:22;;;;;;;13.38;9.18;;;;;;;36.10;47.38;101124.39;1725979;81;21487;-67
2022/06/04 07:46:50;;;;;;;14.03;8.80;;;;;;;36.33;47.46;101115.42;1721301;82;21541;-66
2022/06/04 07:49:19;;;;;;;14.68;9.50;;;;;;;36.65;47.13;101129.50;1748403;81;20990;-66
2022/06/04 07:51:49;;;;;;;16.12;10.18;;;;;;;36.65;46.89;101126.82;1725875;80;21020;-66
2022/06/04 07:54:18;;;;;;;11.45;9.30;;;;;;;36.45;46.97;101128.37;1727408;82;21011;-66
2022/06/04 07:56:45;;;;;;;12.43;10.05;;;;;;;36.38;46.87;101127.12;1734038;81;21025;-66
2022/06/04 07:59:16;;;;;;;14.05;10.35;;;;;;;36.19;47.46;101126.81;1731106;81;21092;-66
2022/06/04 08:01:44;;;;;;;14.58;9.98;;;;;;;35.72;47.49;101134.46;1720526;81;21456;-67
2022/06/04 08:04:11;;;;;;;11.45;8.55;;;;;;;36.97;46.67;101124.73;1733991;82;21431;-66
2022/06/04 08:06:39;;;;;;;14.20;9.65;;;;;;;36.16;47.43;101127.27;1720354;82;21531;-67
2022/06/04 08:09:09;;;;;;;12.50;9.75;;;;;;;35.74;47.42;101121.14;1729761;82;21091;-67
2022/06/04 08:11:38;;;;;;;11.95;8.85;;;;;;;36.06;47.31;101127.75;1709325;81;21472;-66
2022/06/04 08:14:24;;;;;;;12.13;8.70;;;;;;;36.12;47.44;101120.69;1736788;82;21088;-66
2022/06/04 08:16:59;;;;;;;14.33;9.08;;;;;;;35.55;48.55;101130.16;1719338;80;21059;-68
2022/06/04 08:19:31;;;;;;;12.00;9.45;;;;;;;36.07;48.34;101115.97;1741104;81;21070;-66
2022/06/04 08:21:58;;;;;;;15.88;10.08;;;;;;;35.96;47.86;101117.53;1740627;81;20991;-67
2022/06/04 08:24:26;;;;;;;11.30;9.63;;;;;;;35.62;47.72;101110.29;1754823;81;21108;-66
2022/06/04 08:26:58;;;;;;;13.78;9.93;;;;;;;36.02;47.60;101101.91;1740839;81;21065;-66
2022/06/04 08:29:30;;;;;;;12.35;9.20;;;;;;;36.25;47.85;101105.81;1734845;81;21442;-67
2022/06/04 08:31:58;;;;;;;11.68;9.30;;;;;;;35.82;48.43;101103.44;1753068;81;21490;-67
2022/06/04 08:34:25;;;;;;;13.18;9.15;;;;;;;36.20;47.32;101096.30;1740708;80;21030;-66
2022/06/04 08:36:53;;;;;;;12.43;8.93;;;;;;;36.97;46.13;101106.48;1738439;80;21067;-67
2022/06/04 08:39:21;;;;;;;13.55;8.13;;;;;;;37.01;46.56;101112.50;1750995;81;21056;-67
2022/06/04 08:42:14;;;;;;;11.88;8.98;;;;;;;36.85;46.00;101112.61;1735291;80;20959;-67
2022/06/04 08:44:50;;;;;;;12.37;8.68;;;;;;;37.29;45.37;101105.19;1732692;80;21085;-66
2022/06/04 08:47:25;;;;;;;9.70;8.60;;;;;;;37.38;46.21;101106.19;1756431;81;21034;-66
2022/06/04 08:50:11;;;;;;;11.55;8.58;;;;;;;36.82;45.80;101105.54;1751592;81;21058;-66
2022/06/04 08:52:54;;;;;;;12.13;8.18;;;;;;;36.69;46.20;101103.86;1713818;82;21076;-66
2022/06/04 08:58:44;;;;;;;8.63;7.75;;;;;;;37.17;46.20;101103.00;1718701;83;21035;-67
2022/06/04 09:01:37;;;;;;;12.98;8.48;;;;;;;37.29;45.43;101109.21;1711274;83;21077;-66
2022/06/04 09:04:35;;;;;;;11.63;8.93;;;;;;;37.44;44.11;101114.66;1708384;83;21005;-66
2022/06/04 09:07:22;;;;;;;11.55;8.68;;;;;;;37.51;44.78;101105.95;1717581;83;20999;-66
2022/06/04 09:10:06;;;;;;;13.78;8.60;;;;;;;36.80;44.22;101103.61;1690695;83;21067;-65
2022/06/04 09:12:54;;;;;;;13.53;8.55;;;;;;;36.37;45.23;101095.97;1710478;83;21134;-66
2022/06/04 09:15:38;;;;;;;8.40;7.12;;;;;;;37.33;44.54;101098.00;1711969;83;21020;-66
2022/06/04 09:18:25;;;;;;;7.90;6.97;;;;;;;37.12;45.01;101098.84;1712658;83;21036;-67
2022/06/04 09:20:56;;;;;;;7.33;6.53;;;;;;;36.47;45.40;101086.88;1713975;83;21196;-67
2022/06/04 09:23:41;;;;;;;9.13;6.85;;;;;;;37.48;44.50;101082.27;1717004;82;21078;-66
2022/06/04 09:26:28;;;;;;;7.62;6.30;;;;;;;37.63;44.35;101086.66;1743009;80;21483;-67
2022/06/04 09:29:25;;;;;;;8.80;5.97;;;;;;;37.18;44.58;101082.34;1745613;81;21057;-67
2022/06/04 09:32:20;;;;;;;8.58;5.97;;;;;;;37.16;45.00;101084.44;1735100;81;21607;-65
2022/06/04 09:34:51;;;;;;;8.68;6.30;;;;;;;37.02;44.79;101078.42;1734447;80;21110;-66
2022/06/04 09:37:18;;;;;;;9.48;6.70;;;;;;;38.17;43.68;101084.36;1728302;81;21047;-70
2022/06/04 09:39:50;;;;;;;7.53;5.65;;;;;;;37.90;43.71;101087.55;1746995;81;21018;-67
2022/06/04 09:42:23;;;;;;;9.93;7.05;;;;;;;37.28;44.10;101085.27;1741940;80;21096;-66
2022/06/04 09:45:02;;;;;;;10.18;7.67;;;;;;;37.28;43.55;101085.27;1743859;80;20978;-67
2022/06/04 09:47:41;;;;;;;8.78;7.58;;;;;;;37.69;43.13;101074.16;1735392;80;21059;-67
2022/06/04 09:50:29;;;;;;;10.25;7.08;;;;;;;37.80;43.62;101075.23;1739525;81;21312;-68
2022/06/04 09:53:13;;;;;;;9.83;7.42;;;;;;;37.64;43.86;101074.88;1723430;81;21547;-68
2022/06/04 09:55:53;;;;;;;10.00;6.58;;;;;;;38.16;43.17;101073.30;1731524;81;21047;-67
2022/06/04 09:58:33;;;;;;;9.35;6.85;;;;;;;37.99;42.66;101082.08;1741869;81;21013;-66
2022/06/04 10:01:22;;;;;;;8.80;7.05;;;;;;;37.23;41.51;101074.42;1748577;80;21053;-66
2022/06/04 10:04:15;;;;;;;9.60;6.75;;;;;;;37.65;42.25;101058.22;1742856;81;21047;-65
2022/06/04 10:06:42;;;;;;;7.65;5.95;;;;;;;37.74;42.76;101058.17;1706588;81;21093;-66
2022/06/04 10:12:08;;;;;;;7.97;6.05;;;;;;;37.90;42.55;101053.95;1743477;81;21022;-67
2022/06/04 10:14:39;;;;;;;8.75;6.10;;;;;;;38.04;41.66;101062.55;1741358;81;21086;-66
2022/06/04 10:17:21;;;;;;;11.10;6.95;;;;;;;38.30;41.57;101059.06;1743361;81;21491;-67
2022/06/04 10:19:53;;;;;;;9.55;7.40;;;;;;;38.39;42.48;101062.48;1709971;80;21575;-68
2022/06/04 10:22:21;;;;;;;8.37;6.43;;;;;;;38.35;41.48;101059.17;1751043;80;21074;-67
2022/06/04 10:24:53;;;;;;;9.75;6.03;;;;;;;38.51;41.02;101061.13;1738247;81;21562;-68
2022/06/04 10:27:40;;;;;;;11.40;7.53;;;;;;;38.35;40.95;101060.52;1758127;81;20998;-65
2022/06/04 10:30:31;;;;;;;7.12;5.47;;;;;;;38.71;41.16;101053.13;1739798;81;21083;-67
2022/06/04 10:33:25;;;;;;;5.90;4.83;;;;;;;39.25;39.83;101054.33;1738287;81;21043;-66
2022/06/04 10:36:13;;;;;;;8.05;5.12;;;;;;;39.19;39.82;101047.23;1733110;80;20991;-66
2022/06/04 10:39:25;;;;;;;5.75;5.12;;;;;;;39.41;39.74;101045.14;1747804;81;20986;-67
2022/06/04 10:42:17;;;;;;;7.60;5.75;;;;;;;39.63;40.28;101046.56;1693471;81;20987;-67
2022/06/04 10:45:01;;;;;;;5.50;5.00;;;;;;;39.38;40.73;101049.66;1742655;81;21046;-67
2022/06/04 10:47:36;;;;;;;5.50;4.72;;;;;;;39.86;38.78;101045.53;1743123;80;21026;-68
2022/06/04 10:50:21;;;;;;;6.75;5.40;;;;;;;39.33;39.47;101046.91;1710656;81;20995;-65
2022/06/04 10:53:06;;;;;;;7.78;5.65;;;;;;;39.10;40.01;101044.68;1747395;80;21463;-66
2022/06/04 10:55:47;;;;;;;7.35;5.08;;;;;;;39.06;40.03;101036.27;1735280;80;21047;-67
2022/06/04 10:58:29;;;;;;;7.72;5.10;;;;;;;38.97;39.53;101030.19;1730058;81;21077;-67
2022/06/04 11:01:19;;;;;;;6.37;4.62;;;;;;;39.77;38.98;101018.72;1735351;80;21069;-67
2022/06/04 11:04:18;;;;;;;7.58;4.50;;;;;;;39.20;38.65;101017.91;1744495;81;21471;-66
2022/06/04 11:06:50;;;;;;;5.55;4.33;;;;;;;38.35;39.11;101014.27;1739356;80;21019;-66
2022/06/04 11:09:25;;;;;;;7.85;4.58;;;;;;;38.39;39.71;101013.27;1735458;80;21114;-66
2022/06/04 11:12:01;;;;;;;6.62;4.70;;;;;;;38.62;38.83;101023.11;1744107;81;21010;-66
2022/06/04 11:14:44;;;;;;;11.50;4.85;;;;;;;38.62;38.51;101015.05;1758275;81;21010;-65
2022/06/04 11:17:18;;;;;;;6.10;4.40;;;;;;;39.39;37.84;101017.64;1758857;80;21046;-66
2022/06/04 11:20:07;;;;;;;5.28;3.85;;;;;;;39.46;37.22;101012.93;1745321;81;21008;-65
2022/06/04 11:22:42;;;;;;;5.05;4.55;;;;;;;39.37;37.29;101004.95;1726506;82;21409;-65
2022/06/04 11:25:32;;;;;;;5.30;4.70;;;;;;;39.58;37.94;101009.59;1734237;81;21007;-66
2022/06/04 11:28:05;;;;;;;6.53;4.80;;;;;;;39.90;37.86;101006.23;1718154;83;21566;-66
2022/06/04 11:30:52;;;;;;;4.63;4.23;;;;;;;39.90;37.79;101004.08;1716836;83;21514;-67
2022/06/04 11:33:53;;;;;;;4.55;4.05;;;;;;;39.36;36.63;100999.27;1644207;84;21087;-68
2022/06/04 11:36:33;;;;;;;5.17;3.95;;;;;;;39.93;36.79;100994.15;1716350;83;21023;-67
2022/06/04 11:39:36;;;;;;;5.35;4.03;;;;;;;39.11;36.92;100996.48;1672091;83;21047;-68
2022/06/04 11:42:53;;;;;;;5.37;4.12;;;;;;;39.89;36.56;100999.22;1718477;83;21063;-68
2022/06/04 11:45:46;;;;;;;7.58;4.65;;;;;;;39.98;36.69;100997.70;1726632;82;21490;-67
2022/06/04 11:48:31;;;;;;;4.75;4.10;;;;;;;40.06;36.52;100999.94;1723403;82;21098;-68
2022/06/04 11:51:31;;;;;;;4.75;4.20;;;;;;;39.44;36.53;101004.28;1717063;83;21028;-67
2022/06/04 11:54:19;;;;;;;5.00;4.50;;;;;;;39.59;36.63;100995.58;1728550;83;21030;-66
2022/06/04 11:57:01;;;;;;;4.45;3.83;;;;;;;40.09;36.43;100989.20;1726088;83;20996;-68
2022/06/04 11:59:54;;;;;;;5.50;3.95;;;;;;;39.70;36.40;100981.16;1726826;82;21055;-67
2022/06/04 12:02:38;;;;;;;4.47;3.80;;;;;;;39.74;36.51;100986.87;1721390;82;21475;-67
2022/06/04 12:05:46;;;;;;;4.22;3.75;;;;;;;39.65;35.67;100983.27;1723539;83;21087;-67